createdAt,value
2023-08-06T00:02:04.432Z,67.73
2023-08-06T00:04:31.064Z,67.94
2023-08-06T00:06:57.741Z,67.95
2023-08-06T00:09:24.439Z,67.91
2023-08-06T00:11:51.398Z,67.91
2023-08-06T00:14:18.691Z,67.95
2023-08-06T00:16:46.371Z,67.94
2023-08-06T00:19:13.530Z,67.93
2023-08-06T00:21:40.238Z,68.02
2023-08-06T00:24:06.903Z,68.09
2023-08-06T00:26:33.551Z,67.98
2023-08-06T00:29:00.141Z,67.94
2023-08-06T00:31:27.077Z,68.07
2023-08-06T00:33:53.821Z,68.22
2023-08-06T00:36:20.398Z,68.26
2023-08-06T00:38:47.018Z,68.13
2023-08-06T00:41:14.971Z,68.18
2023-08-06T00:43:41.682Z,68.22
2023-08-06T00:46:08.456Z,68.21
2023-08-06T00:48:35.134Z,68.11
2023-08-06T00:51:02.821Z,68.10
2023-08-06T00:53:29.700Z,68.09
2023-08-06T00:55:56.477Z,68.45
2023-08-06T00:58:23.216Z,68.34
2023-08-06T01:00:49.920Z,68.36
2023-08-06T01:03:17.128Z,68.32
2023-08-06T01:05:43.953Z,68.36
2023-08-06T01:08:21.071Z,68.48
2023-08-06T01:11:15.507Z,68.52
2023-08-06T01:13:50.827Z,68.54
2023-08-06T01:16:21.951Z,68.66
2023-08-06T01:18:50.758Z,68.74
2023-08-06T01:21:18.413Z,68.82
2023-08-06T01:23:46.433Z,68.71
2023-08-06T01:26:40.058Z,68.54
2023-08-06T01:29:24.123Z,68.44
2023-08-06T01:31:54.419Z,68.69
2023-08-06T01:34:24.592Z,68.70
2023-08-06T01:36:52.381Z,68.56
2023-08-06T01:39:22.256Z,68.60
2023-08-06T01:41:52.421Z,68.59
2023-08-06T01:44:19.586Z,68.59
2023-08-06T01:46:46.366Z,68.66
2023-08-06T01:49:12.974Z,68.65
2023-08-06T01:51:39.546Z,68.57
2023-08-06T01:54:06.184Z,68.76
2023-08-06T01:56:32.806Z,68.81
2023-08-06T01:58:59.411Z,68.73
2023-08-06T02:01:26.041Z,68.87
2023-08-06T02:03:52.659Z,68.78
2023-08-06T02:06:19.270Z,68.78
2023-08-06T02:08:45.908Z,68.81
2023-08-06T02:11:12.659Z,68.93
2023-08-06T02:13:39.289Z,69.02
2023-08-06T02:19:17.775Z,68.94
2023-08-06T02:21:44.404Z,69.08
2023-08-06T02:24:11.153Z,69.04
2023-08-06T02:26:37.793Z,69.06
2023-08-06T02:29:04.408Z,69.12
2023-08-06T02:31:31.040Z,69.08
2023-08-06T02:33:59.704Z,69.25
2023-08-06T02:36:30.410Z,69.30
2023-08-06T02:38:58.977Z,69.25
2023-08-06T02:41:25.871Z,69.22
2023-08-06T02:43:53.996Z,69.27
2023-08-06T02:46:20.647Z,69.28
2023-08-06T02:48:47.382Z,69.24
2023-08-06T02:51:14.067Z,69.21
2023-08-06T02:53:41.268Z,69.30
2023-08-06T02:56:09.231Z,69.33
2023-08-06T02:59:07.950Z,69.40
2023-08-06T03:01:50.960Z,69.51
2023-08-06T03:04:22.792Z,69.49
2023-08-06T03:06:53.134Z,69.47
2023-08-06T03:09:20.663Z,69.58
2023-08-06T03:11:48.052Z,69.55
2023-08-06T03:14:15.126Z,69.45
2023-08-06T03:24:12.266Z,69.57
2023-08-06T03:26:39.648Z,69.41
2023-08-06T03:29:06.386Z,69.50
2023-08-06T03:31:34.286Z,69.44
2023-08-06T03:34:01.838Z,69.31
2023-08-06T03:36:29.616Z,69.41
2023-08-06T03:38:56.440Z,69.41
2023-08-06T03:41:23.185Z,69.35
2023-08-06T03:43:50.586Z,69.45
2023-08-06T03:46:22.112Z,69.49
2023-08-06T03:48:48.849Z,69.60
2023-08-06T03:51:15.429Z,69.56
2023-08-06T03:53:43.613Z,69.56
2023-08-06T03:56:10.446Z,69.70
2023-08-06T03:58:37.142Z,69.74
2023-08-06T04:01:04.601Z,69.73
2023-08-06T04:03:43.530Z,69.73
2023-08-06T04:06:10.272Z,69.74
2023-08-06T04:08:37.037Z,69.99
2023-08-06T04:11:04.739Z,69.61
2023-08-06T04:13:31.404Z,69.78
2023-08-06T04:16:03.276Z,69.70
2023-08-06T04:18:30.782Z,69.65
2023-08-06T04:20:58.551Z,69.71
2023-08-06T04:23:26.017Z,69.82
2023-08-06T04:25:58.405Z,69.72
2023-08-06T04:28:26.730Z,69.82
2023-08-06T04:30:54.924Z,69.74
2023-08-06T04:33:22.355Z,69.79
2023-08-06T04:35:55.225Z,69.75
2023-08-06T04:38:24.141Z,69.75
2023-08-06T04:40:50.773Z,69.77
2023-08-06T04:43:17.901Z,69.67
2023-08-06T04:45:48.994Z,69.73
2023-08-06T04:48:16.208Z,69.83
2023-08-06T04:50:47.136Z,69.63
2023-08-06T04:53:14.142Z,69.83
2023-08-06T04:55:41.133Z,69.76
2023-08-06T04:58:08.300Z,69.58
2023-08-06T05:00:35.069Z,69.53
2023-08-06T05:03:02.517Z,69.59
2023-08-06T05:05:30.037Z,69.52
2023-08-06T05:07:58.591Z,69.51
2023-08-06T05:10:27.153Z,69.49
2023-08-06T05:12:54.613Z,69.50
2023-08-06T05:15:21.412Z,69.41
2023-08-06T05:17:48.042Z,69.23
2023-08-06T05:20:14.724Z,69.17
2023-08-06T05:22:41.327Z,68.87
2023-08-06T05:25:08.284Z,68.91
2023-08-06T05:27:34.942Z,69.16
2023-08-06T05:30:01.483Z,69.05
2023-08-06T05:32:28.120Z,68.79
2023-08-06T05:34:54.833Z,68.81
2023-08-06T05:37:21.588Z,68.67
2023-08-06T05:39:48.251Z,68.67
2023-08-06T05:42:14.848Z,68.51
2023-08-06T05:44:41.719Z,68.43
2023-08-06T05:47:08.276Z,68.30
2023-08-06T05:49:34.852Z,68.35
2023-08-06T05:52:01.506Z,68.32
2023-08-06T05:54:28.078Z,68.60
2023-08-06T05:56:54.694Z,68.20
2023-08-06T05:59:21.276Z,68.17
2023-08-06T06:01:48.014Z,68.44
2023-08-06T06:04:14.766Z,68.13
2023-08-06T06:06:42.891Z,67.96
2023-08-06T06:09:09.608Z,68.04
2023-08-06T06:11:36.370Z,67.98
2023-08-06T06:14:03.199Z,67.67
2023-08-06T06:16:29.821Z,67.72
2023-08-06T06:18:58.297Z,67.80
2023-08-06T06:21:25.315Z,67.54
2023-08-06T06:23:52.584Z,67.54
2023-08-06T06:26:19.832Z,67.72
2023-08-06T06:28:46.435Z,67.47
2023-08-06T06:31:13.158Z,67.25
2023-08-06T06:33:39.814Z,67.39
2023-08-06T06:36:08.658Z,67.32
2023-08-06T06:38:35.635Z,67.18
2023-08-06T06:41:04.371Z,67.13
2023-08-06T06:43:31.487Z,66.71
2023-08-06T06:45:59.594Z,66.63
2023-08-06T06:48:30.473Z,66.72
2023-08-06T06:51:00.031Z,66.76
2023-08-06T06:53:29.910Z,66.61
2023-08-06T06:55:58.000Z,66.55
2023-08-06T06:58:24.607Z,66.39
2023-08-06T07:00:51.491Z,66.07
2023-08-06T07:03:19.307Z,65.89
2023-08-06T07:05:45.978Z,65.59
2023-08-06T07:08:12.689Z,65.44
2023-08-06T07:10:43.587Z,65.44
2023-08-06T07:13:11.176Z,64.36
2023-08-06T07:15:37.797Z,63.75
2023-08-06T07:18:04.399Z,62.83
2023-08-06T07:20:32.875Z,63.07
2023-08-06T07:23:00.178Z,63.81
2023-08-06T07:25:27.043Z,62.97
2023-08-06T07:27:53.728Z,62.66
2023-08-06T07:30:20.387Z,62.67
2023-08-06T07:32:47.031Z,61.93
2023-08-06T07:35:15.659Z,60.37
2023-08-06T07:37:42.625Z,60.55
2023-08-06T07:40:09.916Z,60.08
2023-08-06T07:42:37.217Z,60.05
2023-08-06T07:45:04.257Z,59.63
2023-08-06T07:47:30.971Z,58.88
2023-08-06T07:49:57.678Z,58.34
2023-08-06T07:52:24.325Z,58.31
2023-08-06T07:54:51.038Z,58.03
2023-08-06T07:57:17.878Z,57.94
2023-08-06T07:59:44.618Z,57.78
2023-08-06T08:02:11.275Z,57.49
2023-08-06T08:04:37.965Z,57.90
2023-08-06T08:07:04.846Z,58.47
2023-08-06T08:09:31.503Z,58.85
2023-08-06T08:12:01.094Z,58.49
2023-08-06T08:14:28.206Z,57.58
2023-08-06T08:16:54.882Z,57.42
2023-08-06T08:19:22.407Z,56.77
2023-08-06T08:21:49.126Z,56.53
2023-08-06T08:24:15.833Z,56.49
2023-08-06T08:26:42.451Z,55.41
2023-08-06T08:29:09.021Z,55.22
2023-08-06T08:31:40.471Z,54.16
2023-08-06T08:34:07.333Z,54.72
2023-08-06T08:36:33.997Z,55.82
2023-08-06T08:39:00.753Z,55.53
2023-08-06T08:41:30.919Z,53.93
2023-08-06T08:44:00.563Z,53.35
2023-08-06T08:46:31.912Z,52.95
2023-08-06T08:49:01.486Z,52.80
2023-08-06T08:51:29.341Z,53.38
2023-08-06T08:54:01.338Z,53.94
2023-08-06T08:56:27.990Z,53.14
2023-08-06T08:58:56.358Z,52.93
2023-08-06T09:01:23.837Z,52.74
2023-08-06T09:03:51.160Z,52.95
2023-08-06T09:06:19.798Z,53.37
2023-08-06T09:08:57.076Z,53.39
2023-08-06T09:11:24.605Z,52.97
2023-08-06T09:13:51.436Z,51.58
2023-08-06T09:16:18.131Z,50.79
2023-08-06T09:18:45.540Z,51.33
2023-08-06T09:21:17.427Z,51.48
2023-08-06T09:23:44.294Z,51.23
2023-08-06T09:26:16.420Z,51.73
2023-08-06T09:28:44.652Z,52.22
2023-08-06T09:31:11.923Z,52.59
2023-08-06T09:33:39.776Z,52.15
2023-08-06T09:36:11.951Z,51.69
2023-08-06T09:38:41.416Z,52.03
2023-08-06T09:41:09.464Z,52.93
2023-08-06T09:43:43.573Z,53.18
2023-08-06T09:46:15.508Z,53.30
2023-08-06T09:48:45.354Z,53.02
2023-08-06T09:51:13.922Z,51.34
2023-08-06T09:53:42.109Z,51.02
2023-08-06T09:56:10.826Z,51.02
2023-08-06T09:58:38.235Z,51.37
2023-08-06T10:01:05.384Z,51.10
2023-08-06T10:03:35.142Z,50.41
2023-08-06T10:06:03.671Z,50.59
2023-08-06T10:08:30.712Z,50.76
2023-08-06T10:10:58.766Z,50.90
2023-08-06T10:13:26.246Z,51.66
2023-08-06T10:15:56.025Z,51.85
2023-08-06T10:18:23.956Z,51.65
2023-08-06T10:20:50.603Z,51.72
2023-08-06T10:23:18.427Z,50.78
2023-08-06T10:25:54.480Z,50.37
2023-08-06T10:28:21.139Z,49.66
2023-08-06T10:30:48.973Z,48.86
2023-08-06T10:33:17.470Z,48.56
2023-08-06T10:35:49.486Z,48.93
2023-08-06T10:38:27.366Z,48.33
2023-08-06T10:40:54.043Z,48.79
2023-08-06T10:43:33.089Z,49.11
2023-08-06T10:46:00.807Z,48.54
2023-08-06T10:48:40.591Z,47.31
2023-08-06T10:51:15.151Z,47.58
2023-08-06T10:53:47.630Z,47.65
2023-08-06T10:56:28.441Z,47.05
2023-08-06T10:58:59.643Z,47.12
2023-08-06T11:01:30.383Z,47.06
2023-08-06T11:03:58.000Z,46.53
2023-08-06T11:06:26.002Z,45.68
2023-08-06T11:08:56.204Z,46.05
2023-08-06T11:11:24.550Z,46.64
2023-08-06T11:13:52.648Z,46.90
2023-08-06T11:16:22.868Z,47.23
2023-08-06T11:18:49.871Z,47.16
2023-08-06T11:21:20.555Z,47.30
2023-08-06T11:23:47.293Z,46.80
2023-08-06T11:26:16.351Z,46.39
2023-08-06T11:28:43.711Z,46.05
2023-08-06T11:31:20.338Z,46.28
2023-08-06T11:33:47.225Z,45.45
2023-08-06T11:36:13.907Z,44.97
2023-08-06T11:38:40.648Z,45.01
2023-08-06T11:41:08.166Z,45.34
2023-08-06T11:43:34.880Z,45.73
2023-08-06T11:46:01.579Z,45.56
2023-08-06T11:48:28.293Z,44.98
2023-08-06T11:50:58.923Z,44.91
2023-08-06T11:53:28.769Z,45.19
2023-08-06T11:55:55.452Z,45.02
2023-08-06T11:58:22.114Z,45.00
2023-08-06T12:00:49.455Z,44.69
2023-08-06T12:03:20.222Z,44.76
2023-08-06T12:05:48.337Z,44.68
2023-08-06T12:08:15.156Z,44.47
2023-08-06T12:10:41.908Z,44.21
2023-08-06T12:13:08.518Z,43.94
2023-08-06T12:15:35.132Z,43.05
2023-08-06T12:18:02.073Z,42.84
2023-08-06T12:20:29.625Z,43.06
2023-08-06T12:22:56.233Z,43.34
2023-08-06T12:25:24.654Z,43.43
2023-08-06T12:27:51.407Z,43.44
2023-08-06T12:30:18.115Z,43.59
2023-08-06T12:32:44.738Z,43.85
2023-08-06T12:35:11.453Z,43.89
2023-08-06T12:37:39.907Z,44.01
2023-08-06T12:40:28.603Z,44.33
2023-08-06T12:42:54.482Z,44.92
2023-08-06T12:45:22.613Z,44.83
2023-08-06T12:47:50.983Z,44.80
2023-08-06T12:50:18.550Z,45.08
2023-08-06T12:52:45.758Z,45.55
2023-08-06T12:55:12.588Z,45.61
2023-08-06T12:57:51.898Z,45.68
2023-08-06T13:00:24.003Z,45.81
2023-08-06T13:02:50.764Z,45.93
2023-08-06T13:05:17.563Z,46.04
2023-08-06T13:07:44.226Z,45.85
2023-08-06T13:10:10.906Z,45.97
2023-08-06T13:12:37.514Z,46.02
2023-08-06T13:15:04.491Z,45.98
2023-08-06T13:17:31.184Z,46.17
2023-08-06T13:19:58.795Z,46.22
2023-08-06T13:22:25.459Z,46.16
2023-08-06T13:24:52.093Z,46.39
2023-08-06T13:27:18.752Z,46.76
2023-08-06T13:29:45.362Z,46.89
2023-08-06T13:32:11.957Z,47.03
2023-08-06T13:34:38.582Z,46.59
2023-08-06T13:37:05.306Z,46.37
2023-08-06T13:39:31.950Z,46.25
2023-08-06T13:41:58.565Z,46.21
2023-08-06T13:44:25.277Z,45.94
2023-08-06T13:46:51.898Z,46.17
2023-08-06T13:49:18.518Z,46.44
2023-08-06T13:51:45.151Z,46.76
2023-08-06T13:54:11.794Z,46.90
2023-08-06T13:56:39.001Z,46.79
2023-08-06T13:59:05.851Z,46.65
2023-08-06T14:01:43.619Z,46.83
2023-08-06T14:04:16.363Z,46.71
2023-08-06T14:06:43.266Z,46.46
2023-08-06T14:09:09.979Z,46.38
2023-08-06T14:11:36.640Z,46.64
2023-08-06T14:14:04.479Z,46.98
2023-08-06T14:16:31.411Z,47.08
2023-08-06T14:18:58.058Z,47.21
2023-08-06T14:21:24.654Z,47.23
2023-08-06T14:23:51.459Z,47.21
2023-08-06T14:26:18.388Z,47.37
2023-08-06T14:28:45.182Z,46.96
2023-08-06T14:31:12.764Z,47.00
2023-08-06T14:33:39.519Z,46.94
2023-08-06T14:36:06.711Z,47.25
2023-08-06T14:38:36.770Z,47.22
2023-08-06T14:41:07.777Z,47.20
2023-08-06T14:43:34.600Z,47.30
2023-08-06T14:46:01.221Z,47.67
2023-08-06T14:48:28.032Z,47.74
2023-08-06T14:50:55.912Z,47.94
2023-08-06T14:53:22.710Z,48.05
2023-08-06T14:55:49.568Z,48.28
2023-08-06T14:58:16.192Z,48.44
2023-08-06T15:00:44.000Z,48.77
2023-08-06T15:03:10.859Z,48.79
2023-08-06T15:05:37.447Z,48.95
2023-08-06T15:08:04.390Z,49.02
2023-08-06T15:10:31.027Z,49.14
2023-08-06T15:13:00.604Z,49.11
2023-08-06T15:15:27.778Z,49.14
2023-08-06T15:17:54.513Z,49.14
2023-08-06T15:20:21.144Z,49.29
2023-08-06T15:22:47.767Z,49.37
2023-08-06T15:25:14.461Z,49.62
2023-08-06T15:27:41.257Z,49.60
2023-08-06T15:30:08.799Z,49.65
2023-08-06T15:32:35.628Z,49.57
2023-08-06T15:35:04.809Z,49.56
2023-08-06T15:37:32.139Z,49.72
2023-08-06T15:39:59.311Z,49.76
2023-08-06T15:42:26.041Z,50.02
2023-08-06T15:44:52.729Z,50.10
2023-08-06T15:47:19.449Z,50.14
2023-08-06T15:49:46.175Z,50.14
2023-08-06T15:52:12.858Z,50.18
2023-08-06T15:54:39.609Z,50.34
2023-08-06T15:57:06.393Z,50.52
2023-08-06T15:59:34.328Z,50.46
2023-08-06T16:02:03.782Z,50.53
2023-08-06T16:04:34.846Z,50.60
2023-08-06T16:07:01.807Z,50.81
2023-08-06T16:09:28.477Z,50.73
2023-08-06T16:11:55.772Z,50.74
2023-08-06T16:14:22.662Z,51.10
2023-08-06T16:16:49.420Z,50.92
2023-08-06T16:19:16.323Z,51.04
2023-08-06T16:21:43.000Z,50.96
2023-08-06T16:24:10.477Z,51.13
2023-08-06T16:26:37.691Z,51.10
2023-08-06T16:29:04.820Z,51.12
2023-08-06T16:31:31.647Z,51.44
2023-08-06T16:33:58.445Z,51.32
2023-08-06T16:36:25.919Z,51.30
2023-08-06T16:38:52.652Z,51.27
2023-08-06T16:41:19.431Z,51.43
2023-08-06T16:43:46.695Z,51.48
2023-08-06T16:46:13.475Z,51.54
2023-08-06T16:48:40.896Z,51.73
2023-08-06T16:51:07.626Z,51.68
2023-08-06T16:53:34.283Z,51.75
2023-08-06T16:56:00.960Z,51.83
2023-08-06T16:58:27.951Z,51.89
2023-08-06T17:00:56.768Z,51.86
2023-08-06T17:03:23.680Z,51.84
2023-08-06T17:05:50.432Z,51.96
2023-08-06T17:08:17.153Z,52.07
2023-08-06T17:10:43.907Z,52.19
2023-08-06T17:13:20.142Z,52.15
2023-08-06T17:15:50.666Z,52.38
2023-08-06T17:18:18.223Z,52.52
2023-08-06T17:20:46.730Z,52.78
2023-08-06T17:23:13.864Z,52.68
2023-08-06T17:25:45.104Z,52.70
2023-08-06T17:28:12.508Z,52.85
2023-08-06T17:30:43.581Z,52.97
2023-08-06T17:33:12.544Z,52.84
2023-08-06T17:35:44.522Z,52.76
2023-08-06T17:38:12.225Z,52.94
2023-08-06T17:40:39.155Z,52.90
2023-08-06T17:43:05.921Z,53.16
2023-08-06T17:45:32.942Z,53.09
2023-08-06T17:47:59.668Z,53.14
2023-08-06T17:50:26.347Z,53.24
2023-08-06T17:52:53.614Z,53.34
2023-08-06T17:55:20.286Z,53.14
2023-08-06T17:57:46.950Z,53.23
2023-08-06T18:00:13.796Z,53.21
2023-08-06T18:02:44.571Z,53.25
2023-08-06T18:05:15.946Z,52.83
2023-08-06T18:07:45.777Z,52.84
2023-08-06T18:10:13.181Z,53.11
2023-08-06T18:12:43.470Z,53.44
2023-08-06T18:15:12.553Z,53.53
2023-08-06T18:17:42.766Z,53.71
2023-08-06T18:20:10.504Z,53.53
2023-08-06T18:22:39.497Z,53.85
2023-08-06T18:25:08.858Z,54.08
2023-08-06T18:27:35.870Z,54.09
2023-08-06T18:30:03.390Z,54.13
2023-08-06T18:32:30.102Z,54.36
2023-08-06T18:34:56.758Z,54.27
2023-08-06T18:37:23.320Z,54.42
2023-08-06T18:39:50.825Z,54.64
2023-08-06T18:42:17.963Z,55.05
2023-08-06T18:44:44.651Z,55.11
2023-08-06T18:47:11.302Z,55.23
2023-08-06T18:49:37.928Z,55.46
2023-08-06T18:52:06.532Z,55.61
2023-08-06T18:54:33.298Z,55.73
2023-08-06T18:56:59.957Z,56.04
2023-08-06T18:59:27.092Z,56.23
2023-08-06T19:01:53.893Z,56.19
2023-08-06T19:04:20.775Z,56.19
2023-08-06T19:06:47.752Z,56.19
2023-08-06T19:09:16.012Z,56.00
2023-08-06T19:11:42.773Z,56.15
2023-08-06T19:14:09.497Z,56.29
2023-08-06T19:16:37.082Z,56.45
2023-08-06T19:19:04.121Z,56.35
2023-08-06T19:21:30.818Z,56.43
2023-08-06T19:23:58.550Z,56.51
2023-08-06T19:26:27.234Z,56.45
2023-08-06T19:28:53.938Z,56.56
2023-08-06T19:31:20.640Z,56.72
2023-08-06T19:33:47.424Z,56.76
2023-08-06T19:36:15.043Z,56.92
2023-08-06T19:38:41.722Z,56.96
2023-08-06T19:41:12.501Z,57.33
2023-08-06T19:43:41.638Z,57.33
2023-08-06T19:46:08.408Z,57.38
2023-08-06T19:48:35.061Z,57.43
2023-08-06T19:51:02.181Z,57.38
2023-08-06T19:53:32.561Z,57.65
2023-08-06T19:56:01.011Z,57.69
2023-08-06T19:58:30.182Z,57.64
2023-08-06T20:00:59.677Z,57.55
2023-08-06T20:03:32.791Z,57.63
2023-08-06T20:06:03.643Z,57.82
2023-08-06T20:08:32.834Z,57.94
2023-08-06T20:11:00.798Z,57.72
2023-08-06T20:13:27.548Z,57.62
2023-08-06T20:15:55.447Z,57.77
2023-08-06T20:18:27.563Z,57.80
2023-08-06T20:20:55.516Z,57.75
2023-08-06T20:23:23.539Z,57.70
2023-08-06T20:25:51.476Z,57.80
2023-08-06T20:28:18.165Z,57.92
2023-08-06T20:30:44.982Z,58.10
2023-08-06T20:33:12.256Z,58.21
2023-08-06T20:35:41.151Z,58.08
2023-08-06T20:38:09.217Z,58.37
2023-08-06T20:40:37.010Z,58.28
2023-08-06T20:43:03.980Z,58.28
2023-08-06T20:45:30.839Z,58.32
2023-08-06T20:47:57.590Z,58.58
2023-08-06T20:50:25.548Z,58.59
2023-08-06T20:52:52.745Z,58.60
2023-08-06T20:55:20.386Z,58.67
2023-08-06T20:57:47.218Z,58.65
2023-08-06T21:00:14.453Z,58.82
2023-08-06T21:02:41.217Z,58.85
2023-08-06T21:05:08.038Z,58.90
2023-08-06T21:07:34.834Z,58.87
2023-08-06T21:10:01.702Z,59.04
2023-08-06T21:12:28.443Z,59.00
2023-08-06T21:14:55.441Z,58.88
2023-08-06T21:17:22.344Z,59.03
2023-08-06T21:19:52.268Z,59.18
2023-08-06T21:22:18.923Z,59.07
2023-08-06T21:24:45.662Z,59.38
2023-08-06T21:27:12.399Z,59.19
2023-08-06T21:29:39.477Z,59.22
2023-08-06T21:32:07.023Z,59.33
2023-08-06T21:34:34.276Z,59.25
2023-08-06T21:37:01.017Z,59.26
2023-08-06T21:39:27.681Z,59.29
2023-08-06T21:41:54.632Z,59.24
2023-08-06T21:44:21.523Z,59.52
2023-08-06T21:46:48.197Z,59.64
2023-08-06T21:49:14.982Z,59.68
2023-08-06T21:51:41.790Z,59.54
2023-08-06T21:54:12.106Z,59.55
2023-08-06T21:56:39.368Z,59.66
2023-08-06T21:59:09.153Z,59.74
2023-08-06T22:01:35.794Z,59.63
2023-08-06T22:04:02.446Z,59.59
2023-08-06T22:06:29.113Z,59.76
2023-08-06T22:08:58.432Z,59.79
2023-08-06T22:11:25.133Z,59.90
2023-08-06T22:13:51.861Z,59.81
2023-08-06T22:16:18.657Z,59.86
2023-08-06T22:18:45.828Z,59.87
2023-08-06T22:21:12.551Z,59.93
2023-08-06T22:23:39.285Z,59.94
2023-08-06T22:26:05.993Z,60.04
2023-08-06T22:28:32.705Z,60.10
2023-08-06T22:30:59.472Z,60.13
2023-08-06T22:33:30.706Z,60.19
2023-08-06T22:35:57.863Z,60.12
2023-08-06T22:38:27.008Z,60.12
2023-08-06T22:40:53.768Z,60.17
2023-08-06T22:43:20.442Z,60.23
2023-08-06T22:45:47.141Z,60.22
2023-08-06T22:48:13.834Z,60.20
2023-08-06T22:50:40.513Z,60.33
2023-08-06T22:53:08.305Z,60.39
2023-08-06T22:58:08.739Z,60.30
2023-08-06T23:00:35.437Z,60.21
2023-08-06T23:03:09.742Z,60.35
2023-08-06T23:05:38.509Z,60.45
2023-08-06T23:08:05.616Z,60.64
2023-08-06T23:10:32.580Z,60.32
2023-08-06T23:12:59.215Z,60.31
2023-08-06T23:15:25.897Z,60.46
2023-08-06T23:17:52.633Z,60.59
2023-08-06T23:20:19.568Z,60.70
2023-08-06T23:22:46.192Z,60.82
2023-08-06T23:25:12.812Z,61.14
2023-08-06T23:27:39.425Z,61.01
2023-08-06T23:30:07.346Z,61.22
2023-08-06T23:32:35.057Z,61.35
2023-08-06T23:35:02.222Z,61.39
2023-08-06T23:37:28.878Z,61.44
2023-08-06T23:39:56.605Z,61.63
2023-08-06T23:42:23.985Z,61.85
2023-08-06T23:44:51.248Z,61.70
2023-08-06T23:47:17.855Z,61.86
2023-08-06T23:49:44.849Z,62.07
2023-08-06T23:52:11.435Z,62.12
2023-08-06T23:54:38.039Z,62.12
2023-08-06T23:57:04.987Z,62.20
2023-08-06T23:59:31.592Z,62.05
